Time;durP1;ratioP1;P1;durP2;ratioP2;P2;SDS_P1;SDS_P2;PMS_P1;PMS_P2;Temp;Humidity;BMP_temperature;BMP_pressure;BME280_temperature;BME280_humidity;BME280_pressure;Samples;Min_cycle;Max_cycle;Signal;HPM_P1;HPM_P2
2020/12/20 00:02:17;;;;;;;10.98;10.18;;;3.20;70.80;;;;;;4977284;29;20134;-75
2020/12/20 00:04:49;;;;;;;10.52;9.73;;;3.20;70.90;;;;;;4988265;29;20054;-74
2020/12/20 00:07:25;;;;;;;11.10;10.30;;;3.10;71.50;;;;;;5007518;29;20513;-74
2020/12/20 00:09:56;;;;;;;10.10;9.32;;;3.00;71.30;;;;;;4990539;29;20038;-74
2020/12/20 00:12:28;;;;;;;10.88;10.07;;;3.00;71.50;;;;;;4976558;29;20053;-74
2020/12/20 00:14:59;;;;;;;11.10;10.20;;;3.00;71.40;;;;;;4992539;29;20111;-74
2020/12/20 00:17:31;;;;;;;11.05;10.15;;;2.90;71.80;;;;;;4994299;29;20058;-73
2020/12/20 00:20:06;;;;;;;10.95;10.15;;;2.90;72.20;;;;;;4998017;29;20558;-75
2020/12/20 00:22:37;;;;;;;10.82;9.93;;;2.80;72.20;;;;;;4993016;29;20049;-74
2020/12/20 00:25:09;;;;;;;10.05;9.25;;;2.80;72.10;;;;;;4992442;29;20133;-74
2020/12/20 00:27:40;;;;;;;10.88;9.98;;;2.80;72.00;;;;;;4988954;29;20078;-73
2020/12/20 00:30:12;;;;;;;10.20;9.40;;;2.80;71.90;;;;;;4990759;29;20437;-74
2020/12/20 00:32:43;;;;;;;10.80;10.00;;;2.80;71.60;;;;;;4977545;29;20053;-74
2020/12/20 00:35:15;;;;;;;10.57;9.77;;;2.90;71.40;;;;;;4997188;29;20069;-73
2020/12/20 00:37:46;;;;;;;10.95;10.10;;;2.90;71.20;;;;;;4990936;29;20129;-74
2020/12/20 00:40:18;;;;;;;11.13;10.32;;;3.00;71.30;;;;;;4991947;29;20081;-73
2020/12/20 00:42:49;;;;;;;10.20;9.43;;;3.00;71.30;;;;;;4990399;29;20049;-74
2020/12/20 00:45:21;;;;;;;11.05;10.25;;;2.90;71.20;;;;;;4983631;29;20458;-73
2020/12/20 00:47:53;;;;;;;16.27;14.55;;;3.00;71.00;;;;;;4992195;29;20505;-74
2020/12/20 00:50:24;;;;;;;15.70;14.10;;;2.90;70.70;;;;;;4994341;29;20052;-74
2020/12/20 00:52:56;;;;;;;13.30;11.93;;;2.80;71.10;;;;;;4990893;29;20069;-74
2020/12/20 00:55:27;;;;;;;12.48;11.30;;;2.70;71.30;;;;;;4992958;29;20685;-73
2020/12/20 00:57:59;;;;;;;12.23;11.20;;;2.60;71.60;;;;;;5005696;29;20069;-74
2020/12/20 01:00:32;;;;;;;12.88;11.80;;;2.60;71.60;;;;;;4966607;29;20677;-74
2020/12/20 01:03:03;;;;;;;12.27;11.27;;;2.60;71.70;;;;;;4983983;29;20050;-75
2020/12/20 01:05:35;;;;;;;12.30;11.30;;;2.60;71.50;;;;;;4993259;29;20053;-74
2020/12/20 01:08:09;;;;;;;11.32;10.43;;;2.70;71.70;;;;;;4991075;29;20052;-74
2020/12/20 01:10:40;;;;;;;10.80;10.00;;;2.60;71.90;;;;;;4990495;29;20042;-73
2020/12/20 01:13:12;;;;;;;10.95;10.05;;;2.60;71.80;;;;;;4990264;29;20050;-74
2020/12/20 01:15:44;;;;;;;11.75;10.75;;;2.60;72.50;;;;;;4991145;29;20501;-74
2020/12/20 01:18:17;;;;;;;12.60;11.50;;;2.50;71.80;;;;;;4980077;29;20060;-73
2020/12/20 01:20:48;;;;;;;11.55;10.60;;;2.40;71.40;;;;;;4982644;29;20111;-73
2020/12/20 01:23:20;;;;;;;11.65;10.75;;;2.30;71.30;;;;;;5006552;29;20670;-73
2020/12/20 01:25:51;;;;;;;12.68;11.57;;;2.30;72.00;;;;;;4977380;29;20134;-73
2020/12/20 01:28:23;;;;;;;11.05;10.15;;;2.20;71.80;;;;;;4999157;29;20528;-73
2020/12/20 01:30:58;;;;;;;11.20;10.30;;;2.20;72.00;;;;;;4990442;29;20107;-73
2020/12/20 01:33:46;;;;;;;10.75;9.85;;;2.20;72.50;;;;;;5005986;29;20811;-74
2020/12/20 01:36:18;;;;;;;10.63;9.82;;;2.20;72.30;;;;;;5004601;29;20042;-73
2020/12/20 01:38:58;;;;;;;10.55;9.75;;;2.20;72.00;;;;;;5002510;29;20050;-73
2020/12/20 01:41:30;;;;;;;10.38;9.57;;;2.20;71.90;;;;;;4995961;29;20058;-74
2020/12/20 01:44:02;;;;;;;10.40;9.60;;;2.20;71.80;;;;;;4996232;29;20053;-73
2020/12/20 01:46:43;;;;;;;10.55;9.75;;;2.20;71.90;;;;;;5001397;29;20049;-73
2020/12/20 01:49:19;;;;;;;10.27;9.48;;;2.20;71.80;;;;;;4985972;29;20057;-73
2020/12/20 01:51:52;;;;;;;12.18;11.07;;;2.30;71.60;;;;;;4995944;29;20907;-73
2020/12/20 01:54:28;;;;;;;12.75;11.65;;;2.10;71.30;;;;;;5003012;29;20042;-74
2020/12/20 01:57:13;;;;;;;12.55;11.45;;;1.90;71.80;;;;;;4995936;29;20153;-74
2020/12/20 02:00:00;;;;;;;12.00;11.00;;;1.80;72.10;;;;;;5001326;29;20058;-73
2020/12/20 02:02:45;;;;;;;10.90;10.00;;;1.90;72.00;;;;;;4993789;29;20055;-73
2020/12/20 02:05:23;;;;;;;11.00;10.20;;;1.80;72.50;;;;;;5004730;29;20054;-73
2020/12/20 02:07:56;;;;;;;11.10;10.20;;;1.80;72.60;;;;;;5001455;29;20261;-73
2020/12/20 02:10:28;;;;;;;11.82;10.93;;;1.80;72.10;;;;;;4978561;29;20046;-74
2020/12/20 02:13:02;;;;;;;10.57;9.68;;;1.80;71.50;;;;;;4985428;29;20513;-73
2020/12/20 02:15:36;;;;;;;11.02;10.13;;;1.80;71.60;;;;;;5001201;29;20085;-73
2020/12/20 02:18:07;;;;;;;11.10;10.20;;;1.80;72.00;;;;;;4992882;29;20063;-73
2020/12/20 02:20:48;;;;;;;;;;;1.80;71.90;;;;;;5001610;29;20660;-73
2020/12/20 02:23:21;;;;;;;11.18;10.30;;;1.80;71.60;;;;;;4993896;29;20357;-73
2020/12/20 02:26:00;;;;;;;10.80;10.00;;;1.80;71.60;;;;;;4991660;29;20069;-74
2020/12/20 02:28:38;;;;;;;10.40;9.60;;;1.80;71.80;;;;;;4996041;29;20054;-73
2020/12/20 02:31:20;;;;;;;10.88;9.88;;;1.70;71.80;;;;;;5005634;29;20053;-73
2020/12/20 02:33:52;;;;;;;10.52;9.73;;;1.70;72.10;;;;;;4997055;29;20118;-73
2020/12/20 02:36:24;;;;;;;10.85;9.98;;;1.60;72.40;;;;;;4994016;29;20792;-73
2020/12/20 02:38:57;;;;;;;10.93;10.02;;;1.60;72.30;;;;;;4994288;29;20074;-72
2020/12/20 02:41:58;;;;;;;11.45;10.55;;;1.60;71.90;;;;;;4991688;29;20050;-73
2020/12/20 02:44:33;;;;;;;10.88;9.98;;;1.60;72.00;;;;;;4994129;29;20053;-73
2020/12/20 02:47:09;;;;;;;11.18;10.25;;;1.50;71.80;;;;;;4991772;29;20074;-73
2020/12/20 02:49:42;;;;;;;11.85;10.70;;;1.50;71.50;;;;;;4993135;29;20054;-73
2020/12/20 02:52:27;;;;;;;11.63;10.73;;;1.50;71.70;;;;;;4994886;29;20107;-74
2020/12/20 02:54:58;;;;;;;10.88;9.88;;;1.50;71.70;;;;;;4992707;29;20047;-73
2020/12/20 02:57:41;;;;;;;11.20;10.30;;;1.50;71.60;;;;;;4994013;29;20406;-73
2020/12/20 03:00:27;;;;;;;10.80;9.90;;;1.50;71.40;;;;;;4980974;29;20046;-74
2020/12/20 03:03:01;;;;;;;10.13;9.32;;;1.50;71.50;;;;;;4999915;29;20054;-74
2020/12/20 03:05:32;;;;;;;10.57;9.75;;;1.50;71.30;;;;;;4985504;29;20469;-74
2020/12/20 03:08:06;;;;;;;10.50;9.63;;;1.40;71.20;;;;;;5007937;29;20042;-73
2020/12/20 03:10:38;;;;;;;11.07;10.18;;;1.40;71.80;;;;;;4995911;29;20505;-74
2020/12/20 03:13:10;;;;;;;11.45;10.45;;;1.30;71.80;;;;;;4997149;29;20133;-73
2020/12/20 03:15:43;;;;;;;11.45;10.55;;;1.20;72.20;;;;;;4986390;29;20179;-74
2020/12/20 03:18:19;;;;;;;10.82;9.93;;;1.20;72.40;;;;;;5008074;29;20050;-73
2020/12/20 03:21:02;;;;;;;10.27;9.48;;;1.20;72.30;;;;;;4995678;29;20053;-74
2020/12/20 03:23:43;;;;;;;10.63;9.63;;;1.20;72.30;;;;;;5001283;29;20421;-73
2020/12/20 03:26:52;;;;;;;10.57;9.77;;;1.20;72.40;;;;;;5008543;29;20081;-73
2020/12/20 03:30:04;;;;;;;10.77;9.88;;;1.20;72.40;;;;;;4989409;29;20125;-74
2020/12/20 03:32:56;;;;;;;11.57;10.63;;;1.20;72.10;;;;;;5005709;29;20077;-73
2020/12/20 03:36:00;;;;;;;11.10;10.20;;;1.10;71.90;;;;;;4999428;29;20050;-73
2020/12/20 03:38:32;;;;;;;10.55;9.75;;;1.10;71.60;;;;;;4988293;29;20074;-73
2020/12/20 03:41:03;;;;;;;10.60;9.80;;;1.10;71.70;;;;;;4988043;29;20517;-73
2020/12/20 03:43:37;;;;;;;11.15;10.05;;;1.10;71.50;;;;;;5007361;29;20053;-74
2020/12/20 03:46:10;;;;;;;10.63;9.63;;;1.10;71.30;;;;;;4984115;29;20142;-74
2020/12/20 03:48:50;;;;;;;10.07;9.27;;;1.00;72.50;;;;;;4993151;29;20050;-74
2020/12/20 03:51:25;;;;;;;10.60;9.80;;;1.00;73.40;;;;;;5001351;29;20050;-73
2020/12/20 03:54:03;;;;;;;10.48;9.68;;;1.00;72.50;;;;;;4982240;29;20068;-73
2020/12/20 03:56:36;;;;;;;10.60;9.70;;;0.80;72.90;;;;;;5005961;29;20106;-73
2020/12/20 03:59:17;;;;;;;10.65;9.75;;;0.80;73.30;;;;;;5009930;29;20050;-74
2020/12/20 04:01:49;;;;;;;10.50;9.63;;;0.80;73.20;;;;;;4979436;29;20078;-74
2020/12/20 04:04:21;;;;;;;10.50;9.70;;;0.80;73.30;;;;;;5000325;29;20039;-74
2020/12/20 04:06:53;;;;;;;10.55;9.75;;;0.80;73.60;;;;;;5008314;29;22009;-75
2020/12/20 04:09:27;;;;;;;10.27;9.48;;;0.80;72.90;;;;;;4988633;29;20044;-75
2020/12/20 04:12:19;;;;;;;9.65;8.75;;;0.80;73.10;;;;;;4994339;29;20046;-75
2020/12/20 04:14:52;;;;;;;10.63;9.82;;;0.90;73.50;;;;;;5007314;29;20050;-75
2020/12/20 04:17:24;;;;;;;9.77;8.98;;;0.90;73.50;;;;;;4997921;29;20050;-72
2020/12/20 04:19:58;;;;;;;9.57;8.88;;;0.90;73.60;;;;;;5010553;29;20061;-75
2020/12/20 04:22:59;;;;;;;9.65;8.80;;;0.90;73.50;;;;;;4990380;29;20130;-75
2020/12/20 04:25:42;;;;;;;10.35;9.52;;;0.90;73.70;;;;;;5005579;29;20038;-74
2020/12/20 04:28:27;;;;;;;10.10;9.30;;;0.90;72.90;;;;;;5008008;29;20046;-74
2020/12/20 04:31:10;;;;;;;10.50;9.70;;;0.90;73.20;;;;;;4981358;29;20098;-73
2020/12/20 04:33:46;;;;;;;10.73;9.93;;;0.80;72.60;;;;;;5006402;29;20050;-74
2020/12/20 04:36:23;;;;;;;11.10;10.20;;;0.70;72.60;;;;;;4991317;29;20046;-74
2020/12/20 04:38:57;;;;;;;10.07;9.18;;;0.70;72.50;;;;;;4992073;29;20719;-74
2020/12/20 04:41:29;;;;;;;10.32;9.52;;;0.70;72.50;;;;;;5008082;29;20151;-74
2020/12/20 04:44:07;;;;;;;10.05;9.25;;;0.70;72.80;;;;;;4975596;29;20121;-74
2020/12/20 04:46:40;;;;;;;10.23;9.32;;;0.70;72.50;;;;;;4993809;29;20072;-73
2020/12/20 04:49:23;;;;;;;10.60;9.70;;;0.70;73.10;;;;;;4999382;29;20050;-73
2020/12/20 04:52:06;;;;;;;9.95;9.15;;;0.70;72.90;;;;;;5006151;29;20758;-73
2020/12/20 04:54:40;;;;;;;9.60;8.80;;;0.70;73.80;;;;;;4997176;29;20068;-73
2020/12/20 04:57:20;;;;;;;10.15;9.25;;;0.70;73.00;;;;;;4988483;29;20061;-72
2020/12/20 04:59:54;;;;;;;9.70;8.90;;;0.70;73.20;;;;;;4983735;29;20058;-73
2020/12/20 05:02:30;;;;;;;10.13;9.32;;;0.70;73.60;;;;;;4977855;29;20129;-73
2020/12/20 05:05:03;;;;;;;10.13;9.32;;;0.70;73.10;;;;;;4996652;29;20421;-73
2020/12/20 05:07:35;;;;;;;10.27;9.48;;;0.70;73.00;;;;;;5003947;29;20556;-72
2020/12/20 05:10:10;;;;;;;10.43;9.60;;;0.70;73.00;;;;;;4977139;29;20055;-73
2020/12/20 05:12:54;;;;;;;10.27;9.40;;;0.70;73.20;;;;;;5006832;29;20053;-73
2020/12/20 05:15:30;;;;;;;10.13;9.30;;;0.70;73.30;;;;;;4976911;29;20049;-73
2020/12/20 05:18:22;;;;;;;10.10;9.30;;;0.70;73.20;;;;;;4978153;29;20050;-74
2020/12/20 05:21:00;;;;;;;9.93;9.20;;;0.70;73.00;;;;;;4967492;29;20050;-74
2020/12/20 05:23:32;;;;;;;10.00;9.20;;;0.70;73.30;;;;;;5000272;29;20057;-73
2020/12/20 05:26:25;;;;;;;9.85;9.05;;;0.60;72.20;;;;;;4990538;29;20058;-74
2020/12/20 05:29:11;;;;;;;10.38;9.48;;;0.40;72.80;;;;;;4990712;29;20046;-74
2020/12/20 05:31:46;;;;;;;10.45;9.65;;;0.40;72.60;;;;;;4997573;29;20053;-73
2020/12/20 05:34:36;;;;;;;10.73;9.73;;;0.50;72.50;;;;;;4999978;29;20381;-74
2020/12/20 05:37:11;;;;;;;10.25;9.45;;;0.50;72.50;;;;;;5004151;29;20050;-74
2020/12/20 05:40:05;;;;;;;10.32;9.52;;;0.50;72.40;;;;;;4978978;29;20046;-73
2020/12/20 05:42:55;;;;;;;10.38;9.48;;;0.50;72.50;;;;;;4988643;29;20190;-73
2020/12/20 05:45:33;;;;;;;10.10;9.30;;;0.50;72.70;;;;;;5007476;29;20054;-73
2020/12/20 05:48:29;;;;;;;10.77;9.90;;;0.50;73.70;;;;;;5005828;29;20050;-73
2020/12/20 05:51:08;;;;;;;10.00;9.13;;;0.50;73.30;;;;;;4997074;29;20042;-73
2020/12/20 05:53:40;;;;;;;11.43;10.48;;;0.50;72.90;;;;;;4990379;29;20053;-73
2020/12/20 05:56:17;;;;;;;10.15;9.20;;;0.50;72.90;;;;;;4997288;29;20046;-72
2020/12/20 05:58:49;;;;;;;10.40;9.60;;;0.50;73.20;;;;;;4989001;29;20042;-74
2020/12/20 06:01:23;;;;;;;9.80;9.10;;;0.50;72.70;;;;;;4968752;29;20055;-73
2020/12/20 06:03:55;;;;;;;9.98;9.15;;;0.50;72.30;;;;;;5007974;29;20071;-74
2020/12/20 06:06:30;;;;;;;9.93;9.13;;;0.50;72.40;;;;;;4991345;29;20058;-74
2020/12/20 06:09:05;;;;;;;10.20;9.40;;;0.50;73.00;;;;;;4992282;29;20417;-74
2020/12/20 06:11:36;;;;;;;9.20;8.50;;;0.50;72.80;;;;;;4998675;29;20129;-74
2020/12/20 06:14:10;;;;;;;9.60;8.80;;;0.40;74.10;;;;;;4994564;29;20045;-74
2020/12/20 06:16:45;;;;;;;9.43;8.73;;;0.40;73.30;;;;;;4990930;29;20085;-74
2020/12/20 06:19:25;;;;;;;9.40;8.70;;;0.40;73.00;;;;;;4984336;29;20061;-75
2020/12/20 06:22:07;;;;;;;10.40;9.50;;;0.40;72.70;;;;;;5006253;29;20054;-74
2020/12/20 06:24:48;;;;;;;9.77;8.98;;;0.30;72.70;;;;;;5008157;29;20723;-74
2020/12/20 06:27:22;;;;;;;9.57;8.77;;;0.30;72.60;;;;;;4986170;29;20138;-74
2020/12/20 06:29:56;;;;;;;9.60;8.90;;;0.30;72.50;;;;;;5010494;29;20050;-73
2020/12/20 06:32:34;;;;;;;10.00;9.20;;;0.30;73.40;;;;;;4994204;29;20103;-73
2020/12/20 06:35:30;;;;;;;9.90;9.10;;;0.20;73.70;;;;;;4996175;29;20046;-73
2020/12/20 06:38:01;;;;;;;9.85;9.05;;;0.20;73.90;;;;;;4997553;29;20053;-73
2020/12/20 06:40:33;;;;;;;10.00;9.20;;;0.20;74.90;;;;;;4993808;29;20054;-73
2020/12/20 06:43:04;;;;;;;10.73;9.75;;;0.20;73.60;;;;;;4997475;29;20049;-73
2020/12/20 06:45:45;;;;;;;11.15;10.25;;;0.20;75.40;;;;;;4994407;29;20091;-73
2020/12/20 06:48:28;;;;;;;11.70;10.60;;;0.20;73.90;;;;;;4995297;29;20095;-72
2020/12/20 06:51:01;;;;;;;11.32;10.32;;;0.20;73.20;;;;;;5011525;29;20057;-73
2020/12/20 06:53:51;;;;;;;10.82;9.80;;;0.30;72.90;;;;;;4994824;29;20509;-72
2020/12/20 06:56:24;;;;;;;10.02;9.23;;;0.30;72.70;;;;;;4995563;29;20050;-73
2020/12/20 06:58:56;;;;;;;11.57;10.57;;;0.30;72.60;;;;;;4995424;29;20050;-72
2020/12/20 07:01:37;;;;;;;9.57;8.68;;;0.20;75.00;;;;;;4992506;29;20509;-72
2020/12/20 07:04:15;;;;;;;8.70;8.00;;;0.20;74.20;;;;;;4994525;29;20094;-73
2020/12/20 07:07:07;;;;;;;9.00;8.20;;;0.30;74.20;;;;;;4994971;29;20106;-73
2020/12/20 07:09:38;;;;;;;9.50;8.70;;;0.30;73.70;;;;;;4992950;29;20053;-72
2020/12/20 07:12:43;;;;;;;9.45;8.65;;;0.30;73.50;;;;;;4978426;29;20122;-73
2020/12/20 07:15:43;;;;;;;10.45;9.43;;;0.30;74.50;;;;;;4993550;29;20113;-71
2020/12/20 07:18:52;;;;;;;10.63;9.63;;;0.40;75.00;;;;;;4993072;29;20458;-70
2020/12/20 07:21:24;;;;;;;10.30;9.40;;;0.50;74.80;;;;;;4992346;29;20099;-70
2020/12/20 07:24:17;;;;;;;9.77;8.77;;;0.60;73.30;;;;;;4990936;29;20084;-71
2020/12/20 07:26:53;;;;;;;9.77;8.98;;;0.50;73.10;;;;;;4987606;29;20735;-71
2020/12/20 07:29:25;;;;;;;10.50;9.50;;;0.60;72.80;;;;;;4991855;29;20050;-71
2020/12/20 07:31:59;;;;;;;9.85;8.95;;;0.60;72.80;;;;;;4992561;29;20092;-71
2020/12/20 07:34:31;;;;;;;9.95;9.15;;;0.50;72.20;;;;;;4993341;29;20138;-71
2020/12/20 07:37:03;;;;;;;10.43;9.52;;;0.40;72.40;;;;;;4992383;29;20057;-71
2020/12/20 07:39:34;;;;;;;10.05;9.15;;;0.40;73.30;;;;;;5003364;29;20053;-71
2020/12/20 07:42:05;;;;;;;9.88;8.90;;;0.40;72.60;;;;;;4996675;29;20141;-71
2020/12/20 07:44:38;;;;;;;10.10;9.20;;;0.40;72.70;;;;;;4989616;29;20053;-71
2020/12/20 07:47:14;;;;;;;14.98;12.80;;;0.50;72.90;;;;;;4990021;29;20053;-71
2020/12/20 07:49:56;;;;;;;17.42;15.18;;;0.50;73.00;;;;;;4990215;29;20048;-71
2020/12/20 07:52:31;;;;;;;19.02;15.55;;;0.50;73.00;;;;;;4991419;29;20042;-72
2020/12/20 07:55:03;;;;;;;14.85;12.88;;;0.50;73.00;;;;;;4998096;29;20038;-72
2020/12/20 07:57:35;;;;;;;20.15;15.52;;;0.50;73.00;;;;;;4990079;29;20058;-71
2020/12/20 08:00:07;;;;;;;21.02;17.08;;;0.50;72.70;;;;;;4988492;29;21359;-72
2020/12/20 08:02:44;;;;;;;24.85;19.73;;;0.60;72.50;;;;;;4990913;29;20078;-71
2020/12/20 08:05:16;;;;;;;20.77;16.67;;;0.60;72.40;;;;;;4988679;29;20414;-71
2020/12/20 08:07:53;;;;;;;23.23;17.88;;;0.60;72.40;;;;;;4990165;29;20599;-71
2020/12/20 08:10:24;;;;;;;33.97;23.25;;;0.70;72.50;;;;;;4988634;29;20190;-72
2020/12/20 08:12:56;;;;;;;18.40;15.32;;;0.70;72.30;;;;;;4991252;29;20046;-71
2020/12/20 08:15:27;;;;;;;14.57;12.45;;;0.70;72.30;;;;;;4989101;29;20425;-71
2020/12/20 08:17:59;;;;;;;8.75;8.05;;;0.80;72.60;;;;;;4990573;29;20645;-71
2020/12/20 08:20:30;;;;;;;13.15;11.45;;;0.80;74.20;;;;;;4996830;29;20106;-73
2020/12/20 08:23:03;;;;;;;18.30;14.55;;;0.80;73.80;;;;;;4993480;29;20547;-74
2020/12/20 08:25:39;;;;;;;13.15;10.88;;;0.80;73.30;;;;;;4992644;29;20061;-74
2020/12/20 08:28:11;;;;;;;12.93;11.10;;;0.80;73.90;;;;;;4999238;29;20111;-73
2020/12/20 08:30:42;;;;;;;11.75;10.63;;;0.90;74.10;;;;;;4990427;29;20654;-74
2020/12/20 08:33:13;;;;;;;14.05;12.70;;;1.00;73.90;;;;;;4981490;29;20424;-73
2020/12/20 08:35:45;;;;;;;14.77;13.32;;;1.00;73.70;;;;;;4995450;29;20133;-72
2020/12/20 08:38:18;;;;;;;12.15;10.88;;;1.00;73.10;;;;;;4993133;29;20073;-73
2020/12/20 08:40:50;;;;;;;11.95;10.68;;;0.90;72.60;;;;;;4990202;29;20313;-74
2020/12/20 08:43:24;;;;;;;11.95;10.85;;;0.80;73.30;;;;;;4997360;29;20416;-74
2020/12/20 08:45:55;;;;;;;10.48;9.48;;;0.80;73.70;;;;;;4991540;29;20050;-73
2020/12/20 08:48:29;;;;;;;11.32;10.00;;;0.90;73.70;;;;;;4978604;29;20073;-73
2020/12/20 08:51:01;;;;;;;12.25;11.13;;;1.00;73.80;;;;;;4990878;29;20061;-74
2020/12/20 08:53:33;;;;;;;11.65;10.55;;;0.90;73.70;;;;;;4998985;29;20134;-73
2020/12/20 08:56:08;;;;;;;11.48;10.38;;;0.90;73.90;;;;;;4994656;29;20734;-74
2020/12/20 08:58:48;;;;;;;11.07;10.02;;;0.80;74.60;;;;;;4991831;29;20048;-73
2020/12/20 09:01:19;;;;;;;11.90;10.68;;;0.80;74.90;;;;;;4990473;29;20050;-73
2020/12/20 09:03:51;;;;;;;11.25;10.20;;;0.90;74.60;;;;;;4990130;29;20521;-73
2020/12/20 09:06:22;;;;;;;11.40;10.35;;;1.00;74.10;;;;;;4990498;29;20710;-74
2020/12/20 09:08:54;;;;;;;12.60;11.30;;;1.20;74.30;;;;;;4991845;29;20125;-73
2020/12/20 09:11:26;;;;;;;11.93;10.75;;;1.30;74.20;;;;;;4993703;29;20042;-73
2020/12/20 09:14:09;;;;;;;13.00;11.70;;;1.30;74.10;;;;;;4994095;29;20046;-74
2020/12/20 09:16:44;;;;;;;11.60;10.50;;;1.40;74.00;;;;;;4994525;29;20394;-73
2020/12/20 09:19:16;;;;;;;11.02;9.93;;;1.40;74.00;;;;;;4992145;29;20046;-73
2020/12/20 09:21:49;;;;;;;10.88;9.77;;;1.50;73.90;;;;;;4989171;29;20117;-73
2020/12/20 09:24:20;;;;;;;11.77;10.77;;;1.60;73.60;;;;;;4992850;29;20053;-73
2020/12/20 09:26:56;;;;;;;11.07;10.07;;;1.70;73.70;;;;;;4992639;29;20066;-74
2020/12/20 09:29:28;;;;;;;11.18;10.07;;;1.80;73.30;;;;;;4993494;29;20041;-74
2020/12/20 09:32:09;;;;;;;11.60;10.60;;;1.80;73.30;;;;;;4990400;29;20055;-73
2020/12/20 09:34:41;;;;;;;10.80;9.80;;;1.90;73.40;;;;;;4995140;29;20049;-74
2020/12/20 09:37:12;;;;;;;11.20;10.10;;;2.00;73.40;;;;;;4997221;29;20050;-74
2020/12/20 09:39:55;;;;;;;12.27;11.00;;;2.00;73.20;;;;;;4992989;29;20073;-75
2020/12/20 09:42:26;;;;;;;11.38;10.25;;;2.10;73.10;;;;;;4989898;29;20104;-74
2020/12/20 09:44:57;;;;;;;11.43;10.43;;;2.20;73.20;;;;;;4988108;29;20035;-75
2020/12/20 09:47:29;;;;;;;11.20;10.20;;;2.20;73.20;;;;;;4988407;29;20061;-75
2020/12/20 09:50:00;;;;;;;11.80;10.80;;;2.30;73.30;;;;;;4990013;29;20061;-74
2020/12/20 09:52:32;;;;;;;12.23;10.90;;;2.40;73.10;;;;;;4989786;29;20054;-74
2020/12/20 09:55:07;;;;;;;11.65;10.45;;;2.40;72.50;;;;;;4990769;29;20125;-74
2020/12/20 09:57:39;;;;;;;11.75;10.65;;;2.40;72.50;;;;;;4990988;29;20345;-74
2020/12/20 10:00:10;;;;;;;10.93;9.88;;;2.50;72.60;;;;;;4991557;29;20054;-72
2020/12/20 10:02:45;;;;;;;11.25;10.05;;;2.50;72.50;;;;;;4991320;29;20050;-72
2020/12/20 10:05:16;;;;;;;12.68;11.48;;;2.60;72.90;;;;;;4989992;29;20046;-72
2020/12/20 10:07:48;;;;;;;12.27;11.18;;;2.60;72.40;;;;;;4995465;29;20505;-72
2020/12/20 10:10:20;;;;;;;11.95;10.77;;;2.70;72.10;;;;;;4991595;29;20042;-72
2020/12/20 10:12:52;;;;;;;13.18;11.60;;;2.70;72.20;;;;;;4994070;29;20269;-71
2020/12/20 10:15:24;;;;;;;14.07;12.77;;;2.80;72.00;;;;;;4993593;29;20064;-71
2020/12/20 10:17:58;;;;;;;14.70;13.20;;;2.80;72.00;;;;;;4982080;29;20536;-74
2020/12/20 10:20:31;;;;;;;12.55;11.10;;;2.90;72.00;;;;;;4993817;29;20514;-71
2020/12/20 10:23:03;;;;;;;13.27;11.88;;;2.90;72.10;;;;;;4980248;29;20049;-73
2020/12/20 10:25:34;;;;;;;12.30;11.07;;;3.00;72.20;;;;;;4991779;29;20050;-73
2020/12/20 10:28:07;;;;;;;12.40;11.07;;;3.00;72.30;;;;;;4991292;29;20629;-72
2020/12/20 10:30:38;;;;;;;12.85;11.32;;;3.00;72.50;;;;;;4992785;29;20085;-72
2020/12/20 10:33:10;;;;;;;11.63;10.52;;;3.10;72.60;;;;;;4994523;29;20085;-73
2020/12/20 10:35:44;;;;;;;18.10;11.15;;;3.20;72.60;;;;;;4991114;29;20500;-72
2020/12/20 10:38:15;;;;;;;11.95;10.85;;;3.20;73.40;;;;;;4998043;29;20070;-71
2020/12/20 10:40:47;;;;;;;11.40;10.30;;;3.30;73.40;;;;;;4991581;29;20062;-72
2020/12/20 10:43:18;;;;;;;12.07;10.98;;;3.30;73.40;;;;;;4995983;29;20046;-71
2020/12/20 10:45:50;;;;;;;11.10;10.13;;;3.40;72.50;;;;;;4990983;29;20062;-70
2020/12/20 10:48:21;;;;;;;11.40;10.30;;;3.50;72.00;;;;;;4975911;29;20501;-70
2020/12/20 10:50:53;;;;;;;12.32;11.23;;;3.70;71.90;;;;;;4990051;29;20057;-70
2020/12/20 10:53:24;;;;;;;11.38;10.38;;;3.80;71.50;;;;;;4992811;29;20129;-71
2020/12/20 10:55:57;;;;;;;11.45;10.35;;;3.90;71.80;;;;;;4992104;29;20050;-69
2020/12/20 10:58:28;;;;;;;11.10;10.10;;;4.00;72.20;;;;;;4987083;29;20045;-70
2020/12/20 11:01:00;;;;;;;11.57;10.48;;;4.10;71.60;;;;;;4991893;29;20050;-70
2020/12/20 11:03:32;;;;;;;10.57;9.68;;;4.20;70.70;;;;;;4992384;29;20054;-71
2020/12/20 11:06:03;;;;;;;11.32;10.23;;;4.30;69.80;;;;;;5008791;29;20050;-72
2020/12/20 11:08:34;;;;;;;11.57;10.52;;;4.20;69.90;;;;;;4994617;29;20142;-70
2020/12/20 11:11:10;;;;;;;10.30;9.40;;;4.30;70.70;;;;;;4991700;29;20510;-73
2020/12/20 11:13:43;;;;;;;11.10;10.10;;;4.30;71.50;;;;;;4995130;29;20034;-72
2020/12/20 11:16:18;;;;;;;12.70;11.50;;;4.30;71.60;;;;;;4997099;29;20070;-69
2020/12/20 11:18:50;;;;;;;23.60;20.08;;;4.50;70.90;;;;;;4993560;29;20075;-74
2020/12/20 11:21:21;;;;;;;11.07;9.98;;;4.50;71.20;;;;;;4993340;29;20054;-72
2020/12/20 11:23:53;;;;;;;11.00;10.00;;;4.50;70.90;;;;;;4978499;29;20060;-71
2020/12/20 11:26:25;;;;;;;10.95;9.98;;;4.60;71.10;;;;;;4993014;29;20046;-72
2020/12/20 11:28:56;;;;;;;11.52;10.52;;;4.60;72.00;;;;;;4992108;29;20390;-72
2020/12/20 11:31:28;;;;;;;11.80;10.63;;;4.80;73.20;;;;;;4994076;29;20038;-73
2020/12/20 11:34:00;;;;;;;12.05;11.05;;;4.80;72.50;;;;;;4991155;29;20049;-71
2020/12/20 11:36:32;;;;;;;11.15;10.15;;;4.90;71.70;;;;;;4992482;29;20800;-71
2020/12/20 11:39:05;;;;;;;11.15;10.25;;;4.90;72.50;;;;;;4992309;29;20050;-73
2020/12/20 11:41:38;;;;;;;11.43;10.52;;;4.80;71.90;;;;;;4993114;29;20054;-74
2020/12/20 11:44:09;;;;;;;12.52;11.43;;;4.90;71.60;;;;;;4993132;29;20505;-74
2020/12/20 11:46:41;;;;;;;12.75;11.55;;;4.80;71.30;;;;;;4993954;29;20053;-71
2020/12/20 11:49:12;;;;;;;11.65;10.65;;;4.90;72.40;;;;;;4998646;29;20122;-72
2020/12/20 11:51:46;;;;;;;11.98;10.98;;;4.90;72.10;;;;;;4993837;29;20593;-71
2020/12/20 11:54:18;;;;;;;12.82;11.60;;;5.00;72.60;;;;;;4992351;29;20050;-70
2020/12/20 11:56:49;;;;;;;12.68;11.57;;;5.00;72.60;;;;;;4987902;29;20450;-70
2020/12/20 11:59:21;;;;;;;14.15;12.85;;;5.10;73.00;;;;;;4989844;29;20074;-71
2020/12/20 12:01:52;;;;;;;13.60;12.40;;;5.10;72.80;;;;;;4988305;29;20082;-71
2020/12/20 12:04:28;;;;;;;12.18;11.07;;;5.20;72.90;;;;;;4998840;29;20052;-72
2020/12/20 12:07:02;;;;;;;13.32;12.13;;;5.20;72.10;;;;;;5008277;29;20058;-76
2020/12/20 12:09:34;;;;;;;12.82;11.60;;;5.20;72.80;;;;;;4990596;29;20046;-75
2020/12/20 12:12:05;;;;;;;12.82;11.73;;;5.20;71.90;;;;;;4987943;29;20340;-75
2020/12/20 12:14:36;;;;;;;11.85;10.75;;;5.30;71.60;;;;;;4991866;29;20054;-75
2020/12/20 12:17:08;;;;;;;12.10;10.90;;;5.30;70.80;;;;;;4990600;29;20102;-72
2020/12/20 12:19:39;;;;;;;12.07;10.90;;;5.30;71.50;;;;;;4989370;29;20053;-74
2020/12/20 12:22:11;;;;;;;11.48;10.48;;;5.40;72.30;;;;;;4990208;29;20050;-74
2020/12/20 12:24:42;;;;;;;12.40;11.30;;;5.50;72.10;;;;;;4993788;29;20046;-73
2020/12/20 12:27:13;;;;;;;11.95;10.95;;;5.50;72.40;;;;;;4980943;29;20653;-75
2020/12/20 12:29:46;;;;;;;11.52;10.40;;;5.50;71.90;;;;;;4992075;29;20046;-76
2020/12/20 12:32:17;;;;;;;12.13;11.02;;;5.50;72.10;;;;;;4989263;29;20459;-77
2020/12/20 12:34:49;;;;;;;12.15;11.15;;;5.50;70.80;;;;;;4989570;29;20046;-72
2020/12/20 12:37:22;;;;;;;12.23;11.00;;;5.50;71.50;;;;;;4990699;29;20046;-74
2020/12/20 12:39:53;;;;;;;12.07;11.07;;;5.60;72.50;;;;;;4992642;29;20094;-72
2020/12/20 12:42:25;;;;;;;12.45;11.45;;;5.70;72.80;;;;;;4992868;29;20054;-74
2020/12/20 12:44:56;;;;;;;12.50;11.50;;;5.80;72.80;;;;;;4992341;29;20509;-75
2020/12/20 12:47:28;;;;;;;12.30;11.30;;;5.90;72.40;;;;;;4993393;29;20421;-73
2020/12/20 12:49:59;;;;;;;12.00;10.90;;;5.90;72.40;;;;;;4990441;29;20042;-72
2020/12/20 12:52:31;;;;;;;12.38;11.38;;;6.00;72.00;;;;;;4993444;29;20166;-73
2020/12/20 12:55:03;;;;;;;11.32;10.43;;;6.00;71.80;;;;;;4991318;29;20034;-74
2020/12/20 12:57:35;;;;;;;12.32;11.23;;;6.10;72.10;;;;;;5004566;29;20042;-72
2020/12/20 13:00:06;;;;;;;10.95;10.05;;;6.10;72.10;;;;;;4989017;29;20129;-74
2020/12/20 13:02:38;;;;;;;11.35;10.45;;;6.10;72.40;;;;;;5002321;29;20046;-74
2020/12/20 13:05:09;;;;;;;10.95;10.05;;;6.20;72.50;;;;;;4993535;29;20075;-77
2020/12/20 13:07:40;;;;;;;11.07;10.18;;;6.20;72.90;;;;;;4989935;29;20062;-74
2020/12/20 13:10:14;;;;;;;10.13;9.32;;;6.20;73.20;;;;;;5003800;29;20514;-73
2020/12/20 13:12:46;;;;;;;10.35;9.55;;;6.20;73.20;;;;;;4990904;29;20408;-74
2020/12/20 13:15:18;;;;;;;11.35;10.45;;;6.20;72.90;;;;;;4989295;29;20066;-76
2020/12/20 13:17:49;;;;;;;10.80;9.80;;;6.10;73.10;;;;;;4992442;29;20552;-74
2020/12/20 13:20:21;;;;;;;11.15;10.25;;;6.10;73.10;;;;;;5004921;29;20735;-74
2020/12/20 13:22:53;;;;;;;10.63;9.82;;;6.20;73.20;;;;;;4979063;29;20075;-75
2020/12/20 13:25:24;;;;;;;11.05;10.18;;;6.10;72.90;;;;;;4988784;29;20765;-72